createdAt,value
2019-03-16T00:02:10.473Z,99648.50
2019-03-16T00:04:40.758Z,99662.14
2019-03-16T00:07:10.803Z,99655.34
2019-03-16T00:09:45.378Z,99666.52
2019-03-16T00:12:31.941Z,99667.38
2019-03-16T00:15:01.882Z,99689.67
2019-03-16T00:17:31.833Z,99680.14
2019-03-16T00:20:01.789Z,99686.08
2019-03-16T00:22:34.833Z,99678.56
2019-03-16T00:25:05.049Z,99691.25
2019-03-16T00:27:35.171Z,99693.42
2019-03-16T00:30:05.762Z,99694.30
2019-03-16T00:32:35.809Z,99697.34
2019-03-16T00:35:06.077Z,99713.95
2019-03-16T00:37:36.144Z,99710.06
2019-03-16T00:40:06.866Z,99719.95
2019-03-16T00:42:36.768Z,99731.50
2019-03-16T00:45:06.966Z,99728.49
2019-03-16T00:47:36.917Z,99728.45
2019-03-16T00:50:08.172Z,99720.74
2019-03-16T00:52:38.074Z,99733.19
2019-03-16T00:55:08.438Z,99734.84
2019-03-16T00:57:38.592Z,99739.95
2019-03-16T01:00:10.813Z,99746.42
2019-03-16T01:02:40.891Z,99740.80
2019-03-16T01:05:11.400Z,99738.89
2019-03-16T01:07:41.609Z,99745.27
2019-03-16T01:10:11.834Z,99745.21
2019-03-16T01:12:41.736Z,99753.81
2019-03-16T01:15:12.129Z,99767.77
2019-03-16T01:17:42.109Z,99768.56
2019-03-16T01:20:12.276Z,99777.66
2019-03-16T01:22:42.263Z,99781.45
2019-03-16T01:25:13.589Z,99774.33
2019-03-16T01:27:43.754Z,99780.02
2019-03-16T01:30:15.315Z,99776.29
2019-03-16T01:32:45.351Z,99783.72
2019-03-16T01:35:15.631Z,99787.95
2019-03-16T01:37:45.499Z,99784.11
2019-03-16T01:40:15.703Z,99787.95
2019-03-16T01:42:45.710Z,99792.96
2019-03-16T01:45:15.706Z,99804.16
2019-03-16T01:47:45.668Z,99799.45
2019-03-16T01:50:17.620Z,99801.69
2019-03-16T01:52:47.731Z,99810.59
2019-03-16T01:55:17.627Z,99797.38
2019-03-16T01:57:47.926Z,99808.88
2019-03-16T02:00:17.968Z,99810.45
2019-03-16T02:02:54.792Z,99818.18
2019-03-16T02:05:20.135Z,99816.94
2019-03-16T02:07:50.080Z,99811.85
2019-03-16T02:10:20.270Z,99814.45
2019-03-16T02:12:50.142Z,99813.56
2019-03-16T02:15:20.047Z,99810.98
2019-03-16T02:17:50.608Z,99824.78
2019-03-16T02:20:21.053Z,99825.59
2019-03-16T02:22:51.401Z,99819.95
2019-03-16T02:25:21.336Z,99838.73
2019-03-16T02:27:51.514Z,99840.66
2019-03-16T02:30:21.450Z,99858.32
2019-03-16T02:32:51.380Z,99858.03
2019-03-16T02:35:21.263Z,99857.17
2019-03-16T02:37:51.196Z,99868.38
2019-03-16T02:40:21.324Z,99865.12
2019-03-16T02:42:51.468Z,99872.48
2019-03-16T02:45:21.634Z,99887.27
2019-03-16T02:47:51.754Z,99884.83
2019-03-16T02:50:21.644Z,99888.09
2019-03-16T02:52:51.617Z,99889.70
2019-03-16T02:55:21.721Z,99899.24
2019-03-16T02:57:51.626Z,99896.42
2019-03-16T03:00:21.668Z,99904.70
2019-03-16T03:02:51.602Z,99907.75
2019-03-16T03:05:21.574Z,99909.86
2019-03-16T03:07:51.569Z,99912.06
2019-03-16T03:10:21.739Z,99909.75
2019-03-16T03:12:52.293Z,99909.68
2019-03-16T03:15:22.821Z,99906.09
2019-03-16T03:17:52.723Z,99911.69
2019-03-16T03:20:22.946Z,99919.64
2019-03-16T03:22:52.913Z,99932.86
2019-03-16T03:25:22.847Z,99937.02
2019-03-16T03:27:52.736Z,99931.17
2019-03-16T03:30:22.691Z,99931.17
2019-03-16T03:32:52.955Z,99946.04
2019-03-16T03:35:28.724Z,99951.34
2019-03-16T03:37:54.703Z,99947.77
2019-03-16T03:40:24.795Z,99959.91
2019-03-16T03:42:54.948Z,99954.87
2019-03-16T03:45:24.791Z,99962.84
2019-03-16T03:47:55.126Z,99971.84
2019-03-16T03:50:25.013Z,99969.91
2019-03-16T03:52:54.932Z,99968.03
2019-03-16T03:55:24.969Z,99972.53
2019-03-16T03:57:55.318Z,99978.36
2019-03-16T04:00:25.198Z,99979.92
2019-03-16T04:02:55.447Z,99981.45
2019-03-16T04:05:25.375Z,99987.27
2019-03-16T04:07:55.461Z,99992.69
2019-03-16T04:10:25.983Z,100003.03
2019-03-16T04:12:55.884Z,100002.41
2019-03-16T04:15:25.810Z,100004.26
2019-03-16T04:17:55.695Z,100004.34
2019-03-16T04:20:25.675Z,100014.08
2019-03-16T04:22:55.592Z,100014.16
2019-03-16T04:25:25.815Z,100020.98
2019-03-16T04:27:56.022Z,100026.98
2019-03-16T04:30:25.918Z,100034.64
2019-03-16T04:32:56.115Z,100036.17
2019-03-16T04:35:26.011Z,100034.77
2019-03-16T04:37:55.947Z,100042.80
2019-03-16T04:40:25.832Z,100036.26
2019-03-16T04:42:55.724Z,100038.17
2019-03-16T04:45:25.646Z,100032.66
2019-03-16T04:47:55.841Z,100035.59
2019-03-16T04:50:25.725Z,100045.48
2019-03-16T04:52:55.716Z,100057.42
2019-03-16T04:55:25.650Z,100049.66
2019-03-16T04:57:55.550Z,100062.51
2019-03-16T05:00:25.552Z,100068.73
2019-03-16T05:02:55.790Z,100063.50
2019-03-16T05:05:25.745Z,100068.27
2019-03-16T05:07:55.723Z,100076.47
2019-03-16T05:10:25.627Z,100078.47
2019-03-16T05:12:55.526Z,100071.61
2019-03-16T05:15:26.040Z,100074.92
2019-03-16T05:17:55.934Z,100078.70
2019-03-16T05:20:25.818Z,100073.50
2019-03-16T05:22:55.695Z,100071.14
2019-03-16T05:25:25.818Z,100081.63
2019-03-16T05:27:55.722Z,100087.72
2019-03-16T05:30:25.600Z,100088.88
2019-03-16T05:32:55.545Z,100084.98
2019-03-16T05:35:25.468Z,100093.82
2019-03-16T05:37:55.381Z,100095.13
2019-03-16T05:40:25.264Z,100102.98
2019-03-16T05:42:55.519Z,100101.66
2019-03-16T05:45:25.629Z,100106.44
2019-03-16T05:47:55.523Z,100125.09
2019-03-16T05:50:25.443Z,100132.34
2019-03-16T05:52:55.330Z,100130.77
2019-03-16T05:55:25.267Z,100129.79
2019-03-16T05:57:55.413Z,100134.17
2019-03-16T06:00:25.321Z,100142.34
2019-03-16T06:02:55.243Z,100140.45
2019-03-16T06:05:25.531Z,100148.02
2019-03-16T06:07:55.410Z,100162.34
2019-03-16T06:10:25.393Z,100156.36
2019-03-16T06:12:55.274Z,100173.13
2019-03-16T06:15:25.185Z,100173.53
2019-03-16T06:17:55.158Z,100173.34
2019-03-16T06:20:25.091Z,100173.39
2019-03-16T06:22:54.970Z,100179.72
2019-03-16T06:25:24.922Z,100176.58
2019-03-16T06:27:54.896Z,100179.03
2019-03-16T06:30:25.103Z,100182.83
2019-03-16T06:32:55.096Z,100189.90
2019-03-16T06:35:29.295Z,100192.08
2019-03-16T06:37:56.813Z,100193.55
2019-03-16T06:40:26.751Z,100201.12
2019-03-16T06:42:56.877Z,100191.89
2019-03-16T06:45:26.792Z,100195.75
2019-03-16T06:47:56.738Z,100198.98
2019-03-16T06:50:26.664Z,100206.02
2019-03-16T06:52:56.802Z,100209.93
2019-03-16T06:55:26.995Z,100212.06
2019-03-16T06:57:56.902Z,100201.98
2019-03-16T07:00:27.073Z,100219.08
2019-03-16T07:02:56.972Z,100205.23
2019-03-16T07:05:37.687Z,100221.55
2019-03-16T07:07:58.551Z,100223.91
2019-03-16T07:10:28.784Z,100223.45
2019-03-16T07:12:58.687Z,100222.34
2019-03-16T07:15:28.841Z,100219.54
2019-03-16T07:17:58.740Z,100231.62
2019-03-16T07:20:28.612Z,100229.84
2019-03-16T07:22:58.730Z,100235.20
2019-03-16T07:25:28.755Z,100236.49
2019-03-16T07:27:58.650Z,100236.77
2019-03-16T07:30:28.567Z,100244.57
2019-03-16T07:32:58.955Z,100245.77
2019-03-16T07:35:29.402Z,100245.50
2019-03-16T07:37:59.523Z,100251.52
2019-03-16T07:40:29.684Z,100248.13
2019-03-16T07:42:59.580Z,100258.41
2019-03-16T07:45:29.501Z,100251.62
2019-03-16T07:47:59.449Z,100261.05
2019-03-16T07:50:29.573Z,100267.83
2019-03-16T07:52:59.454Z,100265.52
2019-03-16T07:55:29.355Z,100272.59
2019-03-16T07:57:59.295Z,100273.73
2019-03-16T08:00:29.778Z,100275.02
2019-03-16T08:02:59.659Z,100270.25
2019-03-16T08:05:40.245Z,100272.20
2019-03-16T08:08:10.201Z,100275.21
2019-03-16T08:10:40.146Z,100270.14
2019-03-16T08:13:10.247Z,100268.11
2019-03-16T08:15:40.390Z,100268.69
2019-03-16T08:18:10.309Z,100262.22
2019-03-16T08:20:40.471Z,100259.52
2019-03-16T08:23:10.841Z,100269.10
2019-03-16T08:25:41.095Z,100281.30
2019-03-16T08:28:11.064Z,100300.64
2019-03-16T08:30:41.287Z,100298.02
2019-03-16T08:33:11.307Z,100302.23
2019-03-16T08:35:41.453Z,100303.98
2019-03-16T08:38:11.900Z,100309.41
2019-03-16T08:40:41.944Z,100313.34
2019-03-16T08:43:11.943Z,100307.34
2019-03-16T08:45:42.302Z,100300.42
2019-03-16T08:48:22.167Z,100290.95
2019-03-16T08:50:47.074Z,100295.16
2019-03-16T08:53:17.263Z,100307.91
2019-03-16T08:55:47.431Z,100307.81
2019-03-16T08:58:17.761Z,100303.96
2019-03-16T09:00:48.130Z,100307.30
2019-03-16T09:03:18.189Z,100304.90
2019-03-16T09:05:48.305Z,100298.84
2019-03-16T09:08:18.626Z,100301.92
2019-03-16T09:10:48.815Z,100296.59
2019-03-16T09:13:18.854Z,100300.52
2019-03-16T09:15:48.783Z,100301.33
2019-03-16T09:18:20.619Z,100302.30
2019-03-16T09:20:50.552Z,100288.14
2019-03-16T09:23:21.102Z,100303.56
2019-03-16T09:25:51.908Z,100294.81
2019-03-16T09:28:21.995Z,100303.80
2019-03-16T09:30:52.337Z,100307.02
2019-03-16T09:33:22.943Z,100296.39
2019-03-16T09:35:52.992Z,100308.78
2019-03-16T09:38:22.944Z,100299.38
2019-03-16T09:40:53.105Z,100310.06
2019-03-16T09:43:23.317Z,100305.81
2019-03-16T09:45:56.697Z,100304.51
2019-03-16T09:48:27.828Z,100304.95
2019-03-16T09:50:57.745Z,100307.49
2019-03-16T09:53:28.112Z,100317.01
2019-03-16T09:55:58.031Z,100311.80
2019-03-16T09:58:31.534Z,100308.80
2019-03-16T10:01:00.399Z,100313.95
2019-03-16T10:03:30.300Z,100316.50
2019-03-16T10:06:00.231Z,100316.45
2019-03-16T10:08:30.312Z,100325.11
2019-03-16T10:11:00.254Z,100317.42
2019-03-16T10:13:30.390Z,100314.13
2019-03-16T10:16:00.293Z,100308.13
2019-03-16T10:18:30.656Z,100318.09
2019-03-16T10:21:00.901Z,100310.77
2019-03-16T10:23:30.836Z,100315.64
2019-03-16T10:26:01.038Z,100302.79
2019-03-16T10:28:42.942Z,100296.26
2019-03-16T10:31:02.896Z,100296.34
2019-03-16T10:33:34.501Z,100292.86
2019-03-16T10:36:04.770Z,100298.85
2019-03-16T10:38:34.728Z,100309.70
2019-03-16T10:41:04.893Z,100307.49
2019-03-16T10:43:35.609Z,100297.09
2019-03-16T10:46:08.375Z,100304.49
2019-03-16T10:48:37.516Z,100311.83
2019-03-16T10:51:07.856Z,100309.17
2019-03-16T10:53:37.809Z,100308.31
2019-03-16T10:56:07.990Z,100327.70
2019-03-16T10:58:38.203Z,100316.02
2019-03-16T11:01:09.033Z,100323.02
2019-03-16T11:03:39.742Z,100317.77
2019-03-16T11:06:09.919Z,100322.69
2019-03-16T11:08:40.514Z,100313.81
2019-03-16T11:11:10.665Z,100308.22
2019-03-16T11:13:41.313Z,100314.22
2019-03-16T11:16:11.743Z,100325.04
2019-03-16T11:18:41.791Z,100302.69
2019-03-16T11:21:11.983Z,100306.16
2019-03-16T11:23:41.943Z,100301.46
2019-03-16T11:26:11.814Z,100304.86
2019-03-16T11:28:44.217Z,100297.98
2019-03-16T11:31:14.128Z,100302.83
2019-03-16T11:33:44.102Z,100310.58
2019-03-16T11:36:14.030Z,100311.87
2019-03-16T11:38:43.958Z,100311.75
2019-03-16T11:41:14.054Z,100305.63
2019-03-16T11:43:44.105Z,100304.00
2019-03-16T11:46:14.005Z,100307.98
2019-03-16T11:48:43.919Z,100316.95
2019-03-16T11:51:14.140Z,100304.51
2019-03-16T11:53:44.144Z,100311.80
2019-03-16T11:56:18.291Z,100322.51
2019-03-16T11:58:45.826Z,100329.80
2019-03-16T12:01:15.866Z,100327.98
2019-03-16T12:03:46.464Z,100309.17
2019-03-16T12:06:21.488Z,100306.51
2019-03-16T12:08:51.604Z,100305.72
2019-03-16T12:11:21.484Z,100314.86
2019-03-16T12:13:51.680Z,100321.69
2019-03-16T12:16:22.198Z,100319.56
2019-03-16T12:18:52.434Z,100317.84
2019-03-16T12:21:22.555Z,100319.50
2019-03-16T12:23:52.508Z,100331.19
2019-03-16T12:26:22.878Z,100327.34
2019-03-16T12:28:52.818Z,100323.84
2019-03-16T12:31:22.744Z,100330.78
2019-03-16T12:33:52.685Z,100338.90
2019-03-16T12:36:22.572Z,100336.38
2019-03-16T12:38:52.531Z,100329.47
2019-03-16T12:41:22.796Z,100324.27
2019-03-16T12:43:53.008Z,100319.16
2019-03-16T12:46:22.928Z,100313.09
2019-03-16T12:48:53.379Z,100316.66
2019-03-16T12:51:24.490Z,100323.23
2019-03-16T12:53:54.394Z,100315.68
2019-03-16T12:56:24.850Z,100312.25
2019-03-16T12:58:55.247Z,100298.92
2019-03-16T13:01:25.134Z,100301.94
2019-03-16T13:03:55.261Z,100314.90
2019-03-16T13:06:25.210Z,100303.22
2019-03-16T13:08:55.445Z,100303.20
2019-03-16T13:11:25.419Z,100298.06
2019-03-16T13:13:55.771Z,100301.93
2019-03-16T13:16:25.700Z,100295.47
2019-03-16T13:18:55.601Z,100294.19
2019-03-16T13:21:25.593Z,100291.17
2019-03-16T13:23:55.585Z,100289.44
2019-03-16T13:26:25.479Z,100288.59
2019-03-16T13:28:55.682Z,100283.80
2019-03-16T13:31:25.929Z,100276.56
2019-03-16T13:33:55.922Z,100272.68
2019-03-16T13:36:25.842Z,100276.55
2019-03-16T13:38:56.769Z,100269.70
2019-03-16T13:41:28.617Z,100269.69
2019-03-16T13:44:00.381Z,100264.11
2019-03-16T13:46:31.777Z,100259.80
2019-03-16T13:49:01.720Z,100262.78
2019-03-16T13:51:31.618Z,100252.48
2019-03-16T13:54:01.584Z,100242.19
2019-03-16T13:56:31.920Z,100237.48
2019-03-16T13:59:02.349Z,100244.09
2019-03-16T14:01:32.491Z,100237.84
2019-03-16T14:04:03.191Z,100227.55
2019-03-16T14:06:33.248Z,100219.84
2019-03-16T14:09:04.641Z,100219.41
2019-03-16T14:11:36.320Z,100207.38
2019-03-16T14:14:07.435Z,100206.11
2019-03-16T14:16:38.177Z,100198.38
2019-03-16T14:19:08.605Z,100187.22
2019-03-16T14:21:38.981Z,100188.07
2019-03-16T14:24:10.433Z,100179.47
2019-03-16T14:26:42.439Z,100184.62
2019-03-16T14:29:12.683Z,100175.17
2019-03-16T14:31:42.613Z,100164.02
2019-03-16T14:34:12.918Z,100164.86
2019-03-16T14:36:43.249Z,100158.86
2019-03-16T14:39:13.189Z,100155.41
2019-03-16T14:41:43.076Z,100151.07
2019-03-16T14:44:12.981Z,100145.55
2019-03-16T14:46:42.906Z,100145.94
2019-03-16T14:49:15.188Z,100145.09
2019-03-16T14:51:47.936Z,100139.02
2019-03-16T14:54:20.383Z,100129.20
2019-03-16T14:56:50.372Z,100136.30
2019-03-16T14:59:20.283Z,100124.06
2019-03-16T15:01:50.316Z,100114.19
2019-03-16T15:04:20.534Z,100114.17
2019-03-16T15:06:50.582Z,100119.28
2019-03-16T15:09:20.697Z,100117.12
2019-03-16T15:11:50.893Z,100112.90
2019-03-16T15:14:22.114Z,100109.64
2019-03-16T15:16:52.513Z,100103.88
2019-03-16T15:19:22.687Z,100110.73
2019-03-16T15:21:52.598Z,100093.14
2019-03-16T15:24:22.611Z,100110.48
2019-03-16T15:26:52.868Z,100102.13
2019-03-16T15:29:24.001Z,100102.85
2019-03-16T15:31:54.360Z,100097.25
2019-03-16T15:34:35.214Z,100081.09
2019-03-16T15:37:05.764Z,100086.27
2019-03-16T15:39:36.368Z,100089.19
2019-03-16T15:42:06.718Z,100085.81
2019-03-16T15:44:38.268Z,100076.41
2019-03-16T15:47:09.949Z,100065.23
2019-03-16T15:49:40.417Z,100058.40
2019-03-16T15:52:11.426Z,100064.41
2019-03-16T15:54:41.946Z,100070.39
2019-03-16T15:57:12.428Z,100068.69
2019-03-16T15:59:42.417Z,100063.97
2019-03-16T16:02:13.020Z,100060.50
2019-03-16T16:04:43.667Z,100067.69
2019-03-16T16:07:13.666Z,100068.67
2019-03-16T16:09:43.735Z,100062.91
2019-03-16T16:12:13.751Z,100042.92
2019-03-16T16:14:43.675Z,100045.09
2019-03-16T16:17:13.687Z,100043.79
2019-03-16T16:19:43.870Z,100042.95
2019-03-16T16:22:16.953Z,100036.94
2019-03-16T16:24:45.666Z,100030.92
2019-03-16T16:27:15.666Z,100031.34
2019-03-16T16:29:46.558Z,100030.48
2019-03-16T16:32:16.535Z,100026.19
2019-03-16T16:34:47.077Z,100019.33
2019-03-16T16:37:17.192Z,100018.03
2019-03-16T16:39:47.183Z,100013.75
2019-03-16T16:42:17.715Z,100015.88
2019-03-16T16:44:47.625Z,100015.05
2019-03-16T16:47:17.587Z,100013.75
2019-03-16T16:49:47.486Z,100019.77
2019-03-16T16:52:17.405Z,100011.61
2019-03-16T16:54:47.590Z,100000.44
2019-03-16T16:57:17.532Z,99998.69
2019-03-16T16:59:47.425Z,99991.42
2019-03-16T17:02:17.358Z,99986.27
2019-03-16T17:04:47.280Z,99993.58
2019-03-16T17:07:17.294Z,99998.30
2019-03-16T17:09:47.414Z,99993.13
2019-03-16T17:12:17.330Z,99997.41
2019-03-16T17:14:47.604Z,99983.27
2019-03-16T17:17:17.590Z,99991.84
2019-03-16T17:19:47.535Z,99988.42
2019-03-16T17:22:17.531Z,99992.27
2019-03-16T17:24:47.434Z,99989.29
2019-03-16T17:27:17.339Z,99977.70
2019-03-16T17:29:47.317Z,99987.14
2019-03-16T17:32:17.266Z,99983.70
2019-03-16T17:34:47.201Z,99975.97
2019-03-16T17:37:17.245Z,99980.69
2019-03-16T17:39:49.662Z,99975.09
2019-03-16T17:42:19.979Z,99982.82
2019-03-16T17:44:51.166Z,99969.09
2019-03-16T17:47:21.246Z,99980.22
2019-03-16T17:49:51.162Z,99976.33
2019-03-16T17:52:21.340Z,99974.22
2019-03-16T17:54:51.350Z,99970.41
2019-03-16T17:57:22.206Z,99972.91
2019-03-16T17:59:52.182Z,99971.63
2019-03-16T18:02:22.343Z,99973.34
2019-03-16T18:04:53.336Z,99969.91
2019-03-16T18:07:23.299Z,99969.06
2019-03-16T18:09:53.379Z,99976.34
2019-03-16T18:12:31.040Z,99974.20
2019-03-16T18:15:00.952Z,99977.18
2019-03-16T18:17:30.962Z,99975.47
2019-03-16T18:20:01.110Z,99970.73
2019-03-16T18:22:31.209Z,99970.77
2019-03-16T18:25:01.222Z,99962.16
2019-03-16T18:27:31.886Z,99960.43
2019-03-16T18:30:01.867Z,99957.86
2019-03-16T18:32:33.297Z,99959.53
2019-03-16T18:35:03.278Z,99954.80
2019-03-16T18:37:33.198Z,99958.66
2019-03-16T18:40:03.181Z,99954.80
2019-03-16T18:42:34.734Z,99958.66
2019-03-16T18:45:07.651Z,99951.31
2019-03-16T18:47:37.572Z,99955.20
2019-03-16T18:50:07.820Z,99954.53
2019-03-16T18:52:37.777Z,99952.26
2019-03-16T18:55:09.297Z,99954.41
2019-03-16T18:57:39.447Z,99947.05
2019-03-16T19:00:11.071Z,99956.86
2019-03-16T19:02:41.050Z,99959.12
2019-03-16T19:05:11.107Z,99948.71
2019-03-16T19:07:41.005Z,99929.75
2019-03-16T19:10:12.411Z,99945.23
2019-03-16T19:12:42.507Z,99941.80
2019-03-16T19:15:14.239Z,99951.64
2019-03-16T19:17:57.516Z,99944.75
2019-03-16T19:20:16.507Z,99936.61
2019-03-16T19:22:46.569Z,99946.03
2019-03-16T19:25:16.650Z,99937.03
2019-03-16T19:27:46.771Z,99945.62
2019-03-16T19:30:17.323Z,99943.02
2019-03-16T19:32:47.458Z,99933.11
2019-03-16T19:35:17.512Z,99921.55
2019-03-16T19:37:47.532Z,99925.39
2019-03-16T19:40:17.562Z,99926.72
2019-03-16T19:42:47.640Z,99927.30
2019-03-16T19:45:18.052Z,99925.89
2019-03-16T19:47:48.194Z,99930.70
2019-03-16T19:50:18.215Z,99924.77
2019-03-16T19:52:55.596Z,99925.25
2019-03-16T19:55:25.718Z,99919.95
2019-03-16T19:57:55.681Z,99918.11
2019-03-16T20:00:26.527Z,99929.87
2019-03-16T20:02:56.862Z,99931.83
2019-03-16T20:05:26.747Z,99930.23
2019-03-16T20:07:56.772Z,99927.81
2019-03-16T20:10:26.878Z,99916.92
2019-03-16T20:12:59.906Z,99924.25
2019-03-16T20:15:29.975Z,99918.47
2019-03-16T20:18:00.058Z,99920.20
2019-03-16T20:20:31.912Z,99922.21
2019-03-16T20:23:04.713Z,99921.69
2019-03-16T20:25:34.757Z,99924.79
2019-03-16T20:28:04.855Z,99922.77
2019-03-16T20:30:42.258Z,99924.41
2019-03-16T20:33:12.761Z,99920.07
2019-03-16T20:35:42.866Z,99913.56
2019-03-16T20:38:12.780Z,99915.23
2019-03-16T20:40:43.319Z,99920.38
2019-03-16T20:43:16.570Z,99922.52
2019-03-16T20:45:46.517Z,99921.20
2019-03-16T20:48:16.585Z,99916.00
2019-03-16T20:50:46.551Z,99921.16
2019-03-16T20:53:16.495Z,99920.31
2019-03-16T20:55:46.436Z,99925.89
2019-03-16T20:58:16.734Z,99927.27
2019-03-16T21:00:50.943Z,99923.75
2019-03-16T21:03:20.948Z,99921.98
2019-03-16T21:05:51.128Z,99912.04
2019-03-16T21:08:21.265Z,99911.66
2019-03-16T21:10:51.197Z,99912.10
2019-03-16T21:13:21.332Z,99916.85
2019-03-16T21:15:51.253Z,99905.80
2019-03-16T21:18:21.266Z,99917.70
2019-03-16T21:20:55.681Z,99907.76
2019-03-16T21:23:25.626Z,99909.17
2019-03-16T21:25:55.582Z,99908.20
2019-03-16T21:28:26.887Z,99903.48
2019-03-16T21:30:58.267Z,99902.97
2019-03-16T21:33:29.975Z,99904.67
2019-03-16T21:36:00.148Z,99908.61
2019-03-16T21:38:32.498Z,99896.89
2019-03-16T21:41:02.736Z,99891.77
2019-03-16T21:43:35.704Z,99895.35
2019-03-16T21:46:05.709Z,99897.46
2019-03-16T21:48:38.621Z,99891.72
2019-03-16T21:51:08.813Z,99894.34
2019-03-16T21:53:39.253Z,99890.88
2019-03-16T21:56:09.231Z,99897.49
2019-03-16T21:58:39.297Z,99895.59
2019-03-16T22:01:09.615Z,99889.99
2019-03-16T22:03:42.022Z,99891.21
2019-03-16T22:06:12.301Z,99885.64
2019-03-16T22:08:43.670Z,99885.67
2019-03-16T22:11:14.512Z,99888.22
2019-03-16T22:13:44.813Z,99886.49
2019-03-16T22:16:16.220Z,99883.47
2019-03-16T22:18:46.126Z,99884.08
2019-03-16T22:21:16.140Z,99881.80
2019-03-16T22:23:46.501Z,99878.71
2019-03-16T22:26:17.220Z,99885.23
2019-03-16T22:28:51.663Z,99880.03
2019-03-16T22:31:23.054Z,99879.29
2019-03-16T22:33:54.781Z,99885.64
2019-03-16T22:36:31.810Z,99876.09
2019-03-16T22:39:02.348Z,99867.60
2019-03-16T22:41:32.255Z,99862.40
2019-03-16T22:44:02.801Z,99865.05
2019-03-16T22:46:34.189Z,99868.11
2019-03-16T22:49:04.307Z,99863.50
2019-03-16T22:51:34.380Z,99860.81
2019-03-16T22:54:04.375Z,99859.70
2019-03-16T22:56:34.582Z,99851.08
2019-03-16T22:59:04.630Z,99856.39
2019-03-16T23:01:34.985Z,99862.81
2019-03-16T23:04:07.098Z,99864.44
2019-03-16T23:06:36.942Z,99865.09
2019-03-16T23:09:08.707Z,99854.70
2019-03-16T23:11:38.731Z,99847.75
2019-03-16T23:14:09.294Z,99848.48
2019-03-16T23:16:40.754Z,99852.83
2019-03-16T23:19:10.909Z,99857.41
2019-03-16T23:21:40.963Z,99855.31
2019-03-16T23:24:10.959Z,99854.55
2019-03-16T23:26:40.889Z,99856.68
2019-03-16T23:29:10.920Z,99855.87
2019-03-16T23:31:44.649Z,99857.23
2019-03-16T23:34:19.264Z,99850.67
2019-03-16T23:36:47.010Z,99847.31
2019-03-16T23:39:16.944Z,99845.21
2019-03-16T23:41:46.908Z,99847.42
2019-03-16T23:44:18.332Z,99847.16
2019-03-16T23:46:48.300Z,99834.52
2019-03-16T23:49:18.514Z,99830.23
2019-03-16T23:51:49.277Z,99831.41
2019-03-16T23:54:21.965Z,99839.93
2019-03-16T23:56:52.091Z,99829.60
2019-03-16T23:59:22.056Z,99824.88
